Malabar, Florida
Current Conditions -  °F | °C
As of 12:53 AM on Sunday 23 Nov 2014 (Local Time) from KMLB Reporting Station
Light Rain Light Rain  
Wind Chill: 73°   Ceiling: 1900
Heat Index: 73°   Visibility: 5mi
Dew Point: 69°   Wind: 12mph
Humidity: 87%   Direction: 120°ESE
Pressure: 30.09"   Gusts: NA
Location:  28°N, 80.57°W
Report Text: KMLB 230553Z AUTO 12010KT 5SM -RA BR OVC019 23/21 A3009 RMK AO2 RAB31 SLP187 P0001 60001 T02280206 10239 20228 58016
Loading
Personal Weather Stations






























Interactive Weather Map New forecast layout! Learn more

10-Day Weather Forecast

Advertisements
Track Severe Weather on mobile